Time;durP1;ratioP1;P1;durP2;ratioP2;P2;SDS_P1;SDS_P2;PMS_P1;PMS_P2;Temp;Humidity;BMP_temperature;BMP_pressure;BME280_temperature;BME280_humidity;BME280_pressure;Samples;Min_cycle;Max_cycle;Signal;HPM_P1;HPM_P2
2021/07/19 04:32:21;;;;;;;6.90;4.07;;;18.90;79.30;;;19.26;61.70;97924.53;5056519;23;20052;-36
2021/07/19 04:34:53;;;;;;;5.97;4.75;;;18.90;79.00;;;19.23;61.77;97923.09;4872340;29;20219;-37
2021/07/19 04:37:23;;;;;;;5.47;3.28;;;18.90;79.10;;;19.26;61.85;97932.63;4890414;29;20063;-36
2021/07/19 04:39:52;;;;;;;6.13;3.70;;;19.00;78.90;;;19.28;61.82;97925.16;4875876;29;20369;-36
2021/07/19 04:42:26;;;;;;;5.93;3.50;;;19.00;78.90;;;19.27;61.91;97926.22;4891742;29;20563;-36
2021/07/19 04:44:54;;;;;;;5.22;3.75;;;19.00;79.00;;;19.28;61.85;97925.97;4892019;29;20556;-37
2021/07/19 04:47:21;;;;;;;5.28;3.80;;;19.00;79.00;;;19.28;61.97;97928.69;4890789;29;20138;-36
2021/07/19 04:49:50;;;;;;;4.72;4.10;;;19.00;79.20;;;19.30;62.09;97922.25;4889060;29;20079;-36
2021/07/19 04:52:18;;;;;;;5.38;3.45;;;19.00;80.00;;;19.29;62.02;97929.53;4892497;29;20047;-37
2021/07/19 04:54:47;;;;;;;4.63;3.70;;;19.00;79.30;;;19.30;62.23;97935.75;4891929;29;20052;-37
2021/07/19 04:57:16;;;;;;;7.03;4.00;;;19.00;79.50;;;19.26;62.31;97929.94;4891568;29;20059;-37
2021/07/19 04:59:51;;;;;;;4.50;3.40;;;19.00;79.60;;;19.31;62.24;97932.84;4873290;29;20063;-37
2021/07/19 05:02:26;;;;;;;6.72;4.80;;;19.00;79.60;;;19.31;62.33;97930.16;4891058;29;20056;-37
2021/07/19 05:04:57;;;;;;;4.60;4.13;;;19.00;79.60;;;19.35;62.26;97925.97;4891272;29;20072;-37
2021/07/19 05:07:30;;;;;;;4.75;3.53;;;19.10;79.30;;;19.38;62.36;97932.81;4891277;29;20064;-34
2021/07/19 05:10:00;;;;;;;;;;;19.10;80.10;;;19.37;62.04;97928.47;4889392;29;20068;-36
2021/07/19 05:12:31;;;;;;;5.50;3.83;;;19.20;80.00;;;19.43;62.21;97930.31;4888380;29;19934;-36
2021/07/19 05:15:00;;;;;;;4.55;3.53;;;19.20;79.40;;;19.48;62.28;97933.19;4890445;29;20226;-36
2021/07/19 05:17:29;;;;;;;5.82;3.70;;;19.30;79.20;;;19.52;62.11;97936.31;4888861;29;20056;-36
2021/07/19 05:19:58;;;;;;;9.52;4.20;;;19.30;78.90;;;19.53;62.10;97929.88;4892236;29;20375;-36
2021/07/19 05:22:25;;;;;;;6.18;4.25;;;19.40;78.90;;;19.56;62.33;97933.00;4889039;29;20057;-35
2021/07/19 05:24:58;;;;;;;5.88;3.55;;;19.40;78.90;;;19.60;62.04;97933.38;4890825;29;20071;-36
2021/07/19 05:27:26;;;;;;;4.75;3.60;;;19.50;78.60;;;19.64;62.08;97930.06;4888801;29;20380;-35
2021/07/19 05:29:54;;;;;;;4.32;3.92;;;19.60;78.30;;;19.68;61.85;97931.28;4891607;29;20447;-35
2021/07/19 05:32:21;;;;;;;5.32;4.78;;;19.60;78.10;;;19.73;61.99;97927.97;4890675;29;20451;-35
2021/07/19 05:34:49;;;;;;;4.47;3.38;;;19.70;78.10;;;19.78;62.03;97927.34;4891159;29;20349;-35
2021/07/19 05:37:24;;;;;;;4.85;4.22;;;19.70;78.10;;;19.77;62.12;97931.91;4890876;29;20063;-34
2021/07/19 05:39:53;;;;;;;6.15;3.42;;;19.70;78.40;;;19.79;61.90;97934.41;4890461;29;20048;-35
2021/07/19 05:42:23;;;;;;;5.63;3.53;;;19.60;78.10;;;19.83;61.99;97931.06;4890996;29;20048;-35
2021/07/19 05:44:52;;;;;;;5.80;4.00;;;19.70;78.20;;;19.84;62.06;97927.31;4890211;29;20064;-35
2021/07/19 05:47:20;;;;;;;5.43;3.30;;;19.80;78.20;;;19.86;62.00;97930.63;4889735;29;20365;-36
2021/07/19 05:49:48;;;;;;;4.30;3.85;;;19.80;78.10;;;19.91;62.20;97927.31;4890808;29;20056;-36
2021/07/19 05:52:16;;;;;;;5.88;4.38;;;19.90;78.00;;;19.97;62.15;97934.56;4889996;29;20266;-36
2021/07/19 05:54:44;;;;;;;5.35;3.60;;;20.00;77.90;;;20.00;61.81;97925.19;4886360;29;20396;-35
2021/07/19 05:57:12;;;;;;;8.30;4.18;;;19.90;77.20;;;20.01;61.70;97924.16;4889367;29;20074;-35
2021/07/19 05:59:40;;;;;;;4.97;3.03;;;19.90;77.20;;;20.01;61.99;97924.97;4890584;29;20262;-37
2021/07/19 06:02:08;;;;;;;4.15;3.53;;;19.90;77.60;;;19.99;61.92;97921.66;4890511;29;20219;-36
2021/07/19 06:04:37;;;;;;;6.13;4.10;;;20.00;77.60;;;20.01;61.92;97924.16;4890499;29;20060;-36
2021/07/19 06:07:06;;;;;;;4.80;3.60;;;19.90;77.60;;;20.02;62.19;97925.78;4890769;29;20556;-36
2021/07/19 06:09:34;;;;;;;5.30;3.83;;;19.90;77.70;;;20.05;62.03;97922.66;4888874;29;20262;-36
2021/07/19 06:12:02;;;;;;;5.38;3.53;;;20.00;77.40;;;20.10;62.26;97930.13;4890581;29;20060;-36
2021/07/19 06:14:30;;;;;;;6.43;3.38;;;20.10;77.70;;;20.13;62.31;97930.53;4889288;29;20049;-36
2021/07/19 06:16:59;;;;;;;6.45;4.07;;;20.10;77.80;;;20.09;62.37;97932.00;4888493;29;20076;-37
2021/07/19 06:19:27;;;;;;;4.60;3.50;;;20.10;77.80;;;20.13;62.15;97927.81;4887761;29;20350;-36
2021/07/19 06:21:55;;;;;;;5.78;3.50;;;20.10;77.60;;;20.19;62.31;97931.53;4888170;29;20048;-37
2021/07/19 06:24:23;;;;;;;4.78;3.50;;;20.20;77.60;;;20.20;62.20;97935.88;4888575;29;20064;-36
2021/07/19 06:26:51;;;;;;;5.35;3.58;;;20.20;77.30;;;20.25;61.70;97936.88;4888388;29;20063;-38
2021/07/19 06:29:19;;;;;;;5.93;3.55;;;20.30;77.10;;;20.29;61.89;97928.34;4888844;29;20060;-36
2021/07/19 06:31:47;;;;;;;6.45;4.03;;;20.30;77.00;;;20.27;61.83;97932.09;4889306;29;20067;-36
2021/07/19 06:34:15;;;;;;;6.22;3.70;;;20.30;76.60;;;20.30;61.44;97933.56;4889319;29;20048;-36
2021/07/19 06:36:43;;;;;;;7.85;3.92;;;20.30;76.30;;;20.30;61.35;97932.72;4890105;29;20253;-36
2021/07/19 06:39:11;;;;;;;6.10;3.83;;;20.30;76.30;;;20.33;61.57;97924.19;4889967;29;20056;-36
2021/07/19 06:41:39;;;;;;;6.93;4.47;;;20.40;76.50;;;20.37;61.80;97928.91;4890560;29;20060;-36
2021/07/19 06:44:07;;;;;;;4.93;4.07;;;20.40;76.60;;;20.44;61.56;97926.19;4888886;29;20068;-36
2021/07/19 06:46:35;;;;;;;8.02;4.38;;;20.50;76.40;;;20.47;61.19;97936.56;4889919;29;20052;-36
2021/07/19 06:49:04;;;;;;;6.00;3.67;;;20.50;76.10;;;20.48;61.51;97932.00;4888174;29;20128;-36
2021/07/19 06:51:32;;;;;;;6.25;3.78;;;20.50;76.30;;;20.51;61.30;97928.84;4889161;29;20066;-36
2021/07/19 06:54:00;;;;;;;5.88;4.38;;;20.60;76.40;;;20.52;61.63;97928.63;4887868;29;20063;-36
2021/07/19 06:56:31;;;;;;;5.32;4.30;;;20.60;76.30;;;20.56;61.58;97920.91;4890827;29;20269;-35
2021/07/19 06:58:59;;;;;;;7.10;4.20;;;20.60;76.30;;;20.55;61.57;97919.25;4888980;29;20250;-35
2021/07/19 07:01:27;;;;;;;5.95;3.83;;;20.60;76.30;;;20.53;61.49;97916.78;4889475;29;20053;-35
2021/07/19 07:03:55;;;;;;;5.53;3.67;;;20.60;76.60;;;20.59;61.68;97918.63;4887862;29;20074;-35
2021/07/19 07:06:28;;;;;;;5.72;4.13;;;20.70;76.60;;;20.58;61.97;97916.94;4889723;29;20057;-35
2021/07/19 07:08:58;;;;;;;7.82;3.80;;;20.70;77.60;;;20.62;61.74;97914.66;4890313;29;20064;-35
2021/07/19 07:11:29;;;;;;;5.13;3.72;;;20.80;76.80;;;20.63;61.34;97919.03;4889676;29;20320;-35
2021/07/19 07:13:58;;;;;;;5.18;3.60;;;20.80;76.00;;;20.66;61.73;97915.88;4889575;29;20048;-35
2021/07/19 07:16:26;;;;;;;6.47;4.55;;;20.80;76.10;;;20.72;61.38;97917.69;4890096;29;20660;-35
2021/07/19 07:18:55;;;;;;;6.20;3.60;;;20.90;76.10;;;20.76;61.63;97915.38;4889445;29;20061;-35
2021/07/19 07:21:24;;;;;;;5.88;4.43;;;20.90;76.20;;;20.79;61.69;97913.06;4888594;29;20059;-35
2021/07/19 07:23:52;;;;;;;5.60;3.83;;;20.90;76.20;;;20.79;61.27;97910.38;4871847;29;20052;-35
2021/07/19 07:26:20;;;;;;;6.78;4.00;;;20.90;76.00;;;20.79;61.71;97915.78;4888996;29;20477;-35
2021/07/19 07:28:49;;;;;;;5.20;4.00;;;20.90;76.00;;;20.82;61.44;97915.34;4888132;29;20118;-35
2021/07/19 07:31:17;;;;;;;7.38;4.15;;;21.00;76.20;;;20.89;61.86;97919.88;4887023;29;20063;-35
2021/07/19 07:33:45;;;;;;;6.07;3.95;;;21.00;76.40;;;20.94;61.98;97914.63;4889273;29;20063;-35
2021/07/19 07:36:14;;;;;;;7.38;4.32;;;21.10;76.40;;;20.98;61.39;97918.56;4889319;29;20063;-35
2021/07/19 07:38:42;;;;;;;4.63;3.63;;;21.10;76.30;;;21.00;61.70;97921.88;4892270;29;20107;-35
2021/07/19 07:41:10;;;;;;;5.55;4.18;;;21.10;76.20;;;21.04;61.32;97923.91;4892172;29;20067;-35
2021/07/19 07:43:38;;;;;;;8.38;4.15;;;21.20;76.10;;;21.08;61.20;97918.06;4891830;29;20346;-35
2021/07/19 07:46:06;;;;;;;6.05;3.97;;;21.20;75.90;;;21.14;61.68;97915.28;4893442;29;20070;-35
2021/07/19 07:48:35;;;;;;;5.82;3.85;;;21.30;75.80;;;21.17;61.10;97917.53;4889631;29;20059;-35
2021/07/19 07:51:06;;;;;;;5.18;3.30;;;21.40;75.70;;;21.20;61.61;97919.78;4891549;29;20071;-35
2021/07/19 07:53:35;;;;;;;4.93;3.92;;;21.40;75.40;;;21.23;60.81;97919.34;4892829;29;20060;-35
2021/07/19 07:56:03;;;;;;;5.60;4.05;;;21.40;74.90;;;21.28;61.25;97920.56;4892067;29;20056;-35
2021/07/19 07:58:31;;;;;;;5.85;4.38;;;21.50;75.20;;;21.33;61.56;97915.31;4890401;29;20056;-35
2021/07/19 08:00:59;;;;;;;6.35;4.72;;;21.50;75.50;;;21.38;61.05;97912.75;4881488;29;20060;-35
2021/07/19 08:03:27;;;;;;;4.85;3.72;;;21.60;74.90;;;21.41;60.82;97913.13;4880192;29;20041;-35
2021/07/19 08:05:56;;;;;;;5.15;4.45;;;21.60;74.80;;;21.45;60.98;97908.13;4881690;29;20361;-35
2021/07/19 08:08:24;;;;;;;7.40;3.92;;;21.60;75.70;;;21.48;61.34;97907.69;4880992;29;20063;-35
2021/07/19 08:10:52;;;;;;;7.45;3.60;;;21.70;75.00;;;21.52;61.15;97906.19;4882626;29;20055;-35
2021/07/19 08:13:20;;;;;;;5.00;4.40;;;21.70;74.80;;;21.58;60.81;97909.88;4880340;29;20060;-35
2021/07/19 08:15:48;;;;;;;4.72;4.00;;;21.80;74.90;;;21.59;61.19;97908.81;4880739;29;20200;-35
2021/07/19 08:18:16;;;;;;;5.47;4.78;;;21.80;74.70;;;21.53;60.80;97902.41;4871986;29;20053;-36
2021/07/19 08:20:47;;;;;;;5.05;4.13;;;21.80;74.70;;;21.58;60.59;97901.75;4871967;29;20243;-36
2021/07/19 08:23:15;;;;;;;5.57;4.38;;;21.80;74.60;;;21.64;60.48;97895.41;4873468;29;20053;-36
2021/07/19 08:25:43;;;;;;;5.03;3.80;;;21.80;74.50;;;21.70;60.78;97904.53;4873437;29;20067;-36
2021/07/19 08:28:13;;;;;;;5.45;4.20;;;21.90;74.60;;;21.74;61.03;97913.84;4873287;29;20228;-36
2021/07/19 08:30:41;;;;;;;6.15;3.95;;;22.00;74.80;;;21.77;60.41;97902.53;4871566;29;20057;-36
2021/07/19 08:33:09;;;;;;;8.75;4.07;;;22.10;74.20;;;21.81;60.67;97901.88;4872033;29;20389;-36
2021/07/19 08:35:37;;;;;;;9.10;4.15;;;22.10;74.20;;;21.79;60.05;97900.44;4871852;29;20067;-36
2021/07/19 08:38:06;;;;;;;5.80;3.47;;;22.10;73.30;;;21.79;60.21;97901.28;4871812;29;20240;-36
2021/07/19 08:40:37;;;;;;;4.15;3.08;;;22.10;73.00;;;21.85;59.13;97902.25;4873640;29;20053;-36
2021/07/19 08:43:06;;;;;;;5.30;4.00;;;22.20;71.60;;;21.88;58.79;97901.78;4872808;29;20049;-36
2021/07/19 08:45:36;;;;;;;5.30;3.78;;;22.20;71.30;;;21.93;59.13;97907.38;4872323;29;20071;-36
2021/07/19 08:48:04;;;;;;;5.68;3.70;;;22.30;71.20;;;21.98;58.93;97910.22;4870823;29;20384;-36
2021/07/19 08:50:33;;;;;;;4.28;3.60;;;22.40;71.20;;;22.06;59.16;97900.09;4870794;29;20066;-36
2021/07/19 08:53:01;;;;;;;4.47;4.03;;;22.40;71.20;;;22.14;58.79;97902.50;4872967;29;20049;-36
2021/07/19 08:55:30;;;;;;;5.90;3.83;;;22.50;71.20;;;22.18;58.75;97896.41;4871198;29;20069;-36
2021/07/19 08:58:01;;;;;;;7.03;4.20;;;22.50;71.20;;;22.23;58.78;97896.50;4870318;29;20052;-36
2021/07/19 09:00:29;;;;;;;5.43;4.22;;;22.60;71.10;;;22.30;58.97;97891.03;4871032;29;20246;-36
2021/07/19 09:02:57;;;;;;;6.85;3.83;;;22.60;71.40;;;22.34;58.05;97886.00;4872163;29;20084;-36
2021/07/19 09:05:27;;;;;;;5.45;3.90;;;22.60;70.80;;;22.34;58.08;97886.00;4872883;29;20238;-36
2021/07/19 09:07:55;;;;;;;4.05;3.38;;;22.60;70.90;;;22.36;58.36;97881.97;4872628;29;20247;-36
2021/07/19 09:10:26;;;;;;;6.38;4.65;;;22.70;70.60;;;22.44;58.22;97888.16;4871724;29;20346;-35
2021/07/19 09:12:58;;;;;;;5.25;4.03;;;22.80;70.30;;;22.50;57.78;97885.31;4872536;29;20165;-37
2021/07/19 09:15:37;;;;;;;4.03;3.42;;;22.80;70.10;;;22.50;57.75;97879.06;4871557;29;20254;-35
2021/07/19 09:18:06;;;;;;;4.57;3.83;;;22.90;69.20;;;22.55;57.80;97881.94;4872631;29;20071;-35
2021/07/19 09:20:42;;;;;;;6.60;4.15;;;22.90;69.70;;;22.57;57.46;97872.50;4872718;29;20055;-35
2021/07/19 09:23:11;;;;;;;5.50;3.95;;;23.00;69.40;;;22.65;57.19;97884.88;4872995;29;20057;-35
2021/07/19 09:25:40;;;;;;;4.50;3.60;;;23.00;68.70;;;22.71;56.85;97881.25;4872875;29;20067;-36
2021/07/19 09:28:12;;;;;;;5.88;3.75;;;23.10;68.20;;;22.78;55.97;97881.16;4872068;29;20193;-36
2021/07/19 09:30:46;;;;;;;5.63;3.43;;;23.20;66.90;;;22.81;55.40;97880.66;4872018;29;20057;-36
2021/07/19 09:33:18;;;;;;;6.03;3.70;;;23.20;64.80;;;22.81;55.32;97880.66;4872660;29;20292;-36
2021/07/19 09:35:50;;;;;;;5.10;3.10;;;23.20;66.10;;;22.84;54.91;97884.78;4885799;29;20270;-36
2021/07/19 09:38:19;;;;;;;4.90;3.80;;;23.20;65.20;;;22.87;54.33;97879.72;4873272;29;20065;-36
2021/07/19 09:40:55;;;;;;;4.47;3.47;;;23.20;64.90;;;22.91;53.97;97878.19;4871490;29;20381;-37
2021/07/19 09:43:26;;;;;;;5.18;3.33;;;23.30;64.30;;;22.97;53.56;97868.28;4872685;29;20063;-36
2021/07/19 09:46:07;;;;;;;4.68;3.15;;;23.40;63.10;;;23.05;53.87;97872.56;4871190;29;20067;-36
2021/07/19 09:48:38;;;;;;;7.07;3.78;;;23.50;63.70;;;23.10;54.18;97870.78;4879508;29;20196;-36
2021/07/19 09:51:09;;;;;;;5.38;3.05;;;23.60;64.20;;;23.19;54.47;97865.84;4887819;29;20057;-36
2021/07/19 09:53:43;;;;;;;6.15;4.40;;;23.70;65.10;;;23.27;53.60;97873.63;4888697;29;20048;-35
2021/07/19 09:56:19;;;;;;;7.10;3.07;;;23.90;63.90;;;23.42;53.77;97869.56;4887308;29;20063;-35
2021/07/19 09:59:07;;;;;;;5.88;3.28;;;23.90;63.60;;;23.52;53.36;97869.81;4886455;29;20281;-36
2021/07/19 10:01:41;;;;;;;4.13;3.15;;;24.10;63.70;;;23.65;52.64;97860.56;4885417;29;20052;-36
2021/07/19 10:04:18;;;;;;;4.75;3.90;;;24.20;63.10;;;23.75;52.75;97856.16;4889109;29;20037;-35
2021/07/19 10:06:52;;;;;;;4.60;3.35;;;24.30;62.80;;;23.84;52.84;97853.09;4887919;29;20349;-35
2021/07/19 10:09:23;;;;;;;6.05;3.50;;;24.30;62.80;;;23.92;52.78;97852.69;4887467;29;20068;-35
2021/07/19 10:11:57;;;;;;;3.95;3.55;;;24.50;62.70;;;23.97;51.55;97853.63;4887553;29;20068;-35
2021/07/19 10:14:33;;;;;;;3.78;3.10;;;24.50;60.60;;;24.01;50.74;97842.28;4888614;29;20270;-36
2021/07/19 10:17:03;;;;;;;4.35;3.17;;;24.60;59.20;;;24.10;51.72;97843.56;4889057;29;20210;-36
2021/07/19 10:19:34;;;;;;;5.15;2.80;;;24.70;61.30;;;24.20;51.09;97842.91;4888468;29;20049;-36
2021/07/19 10:22:03;;;;;;;4.75;2.95;;;24.70;60.50;;;24.29;51.07;97842.28;4890232;29;20067;-35
2021/07/19 10:24:31;;;;;;;6.38;3.00;;;24.80;60.10;;;24.36;50.24;97839.38;4888657;29;20052;-35
2021/07/19 10:27:00;;;;;;;5.75;3.30;;;24.90;59.10;;;24.42;50.95;97840.28;4888712;29;20063;-35
2021/07/19 10:29:28;;;;;;;3.67;3.20;;;25.00;60.20;;;24.47;51.09;97837.66;4888511;29;20056;-35
2021/07/19 10:31:57;;;;;;;6.20;3.30;;;25.00;60.20;;;24.45;50.31;97843.34;4887868;29;20056;-35
2021/07/19 10:34:25;;;;;;;4.13;3.50;;;25.00;59.30;;;24.47;50.58;97845.84;4889319;29;20057;-35
2021/07/19 10:36:57;;;;;;;4.40;3.00;;;24.90;59.70;;;24.45;50.17;97839.81;4888924;29;20064;-37
2021/07/19 10:39:44;;;;;;;4.97;2.75;;;24.90;59.10;;;24.41;48.72;97836.75;4889638;29;20380;-37
2021/07/19 10:42:12;;;;;;;4.22;3.45;;;24.90;57.40;;;24.40;49.73;97826.94;4889980;29;20060;-36
2021/07/19 10:44:43;;;;;;;4.63;3.60;;;24.70;59.40;;;24.38;49.96;97829.88;4889989;29;20063;-36
2021/07/19 10:47:16;;;;;;;5.22;2.97;;;24.70;59.90;;;24.34;50.17;97825.19;4890046;29;20385;-36
2021/07/19 10:50:02;;;;;;;;;;;24.70;59.70;;;24.20;49.72;97827.41;4889425;29;20068;-37
2021/07/19 10:52:38;;;;;;;6.78;3.53;;;24.60;59.40;;;24.25;49.66;97818.50;4889944;29;19934;-37
2021/07/19 10:55:09;;;;;;;4.90;3.67;;;24.50;59.00;;;24.26;49.55;97820.16;4889345;29;20052;-37
2021/07/19 10:57:44;;;;;;;6.57;3.00;;;24.50;59.60;;;24.23;48.75;97821.47;4889810;29;20062;-36
2021/07/19 11:00:19;;;;;;;5.07;2.80;;;24.60;57.90;;;24.29;48.81;97814.22;4889039;29;20366;-37
2021/07/19 11:02:47;;;;;;;5.65;2.90;;;24.60;57.20;;;24.33;49.25;97812.66;4890172;29;20040;-36
2021/07/19 11:05:18;;;;;;;3.95;3.13;;;24.60;58.80;;;24.40;49.21;97816.03;4890502;29;20057;-36
2021/07/19 11:07:46;;;;;;;3.53;2.78;;;24.70;58.70;;;24.37;48.13;97819.28;4889598;29;20060;-37
2021/07/19 11:10:22;;;;;;;6.72;3.63;;;24.70;57.50;;;24.39;49.18;97817.13;4889039;29;20052;-36
2021/07/19 11:12:56;;;;;;;4.60;2.95;;;24.70;58.30;;;24.42;48.81;97815.81;4893713;29;20358;-37
2021/07/19 11:15:39;;;;;;;4.85;2.85;;;24.70;58.10;;;24.45;47.74;97820.78;4892935;29;20060;-36
2021/07/19 11:18:18;;;;;;;4.40;2.90;;;24.80;56.00;;;24.46;47.40;97815.06;4893298;29;20070;-37
2021/07/19 11:20:48;;;;;;;4.40;3.20;;;24.80;56.40;;;24.52;48.44;97818.72;4894844;29;20434;-37
2021/07/19 11:23:32;;;;;;;3.40;2.83;;;24.90;57.60;;;24.58;46.15;97811.47;4893606;29;20067;-37
2021/07/19 11:26:18;;;;;;;4.40;3.25;;;25.00;53.50;;;24.67;46.88;97810.00;4893012;29;20484;-37
2021/07/19 11:28:46;;;;;;;4.70;3.08;;;25.20;55.50;;;24.74;46.62;97799.75;4892431;29;20061;-37
2021/07/19 11:31:31;;;;;;;6.05;3.15;;;25.30;55.10;;;24.82;46.71;97799.34;4892646;29;20278;-37
2021/07/19 11:34:04;;;;;;;5.60;3.33;;;25.40;53.20;;;24.89;46.59;97796.44;4890982;29;20071;-37
2021/07/19 11:36:44;;;;;;;4.63;3.58;;;25.50;54.70;;;25.01;46.54;97791.72;4892002;29;20060;-37
2021/07/19 11:39:20;;;;;;;3.60;3.22;;;25.60;54.90;;;25.12;47.23;97804.38;4892335;29;20350;-37
2021/07/19 11:41:59;;;;;;;4.07;3.00;;;25.80;54.50;;;25.23;46.12;97796.41;4875855;29;20388;-37
2021/07/19 11:44:30;;;;;;;3.67;2.38;;;25.90;53.20;;;25.30;45.96;97792.41;4893880;29;20059;-37
2021/07/19 11:47:03;;;;;;;3.90;2.88;;;25.90;53.70;;;25.33;45.55;97791.06;4889870;29;20064;-37
2021/07/19 11:49:33;;;;;;;3.85;3.15;;;25.80;53.50;;;25.33;45.94;97785.63;4892673;29;20056;-37
2021/07/19 11:52:02;;;;;;;3.70;3.05;;;25.90;54.30;;;25.39;45.78;97791.97;4892343;29;20060;-37
2021/07/19 11:54:30;;;;;;;5.05;3.28;;;26.00;54.00;;;25.45;45.76;97783.59;4891660;29;20052;-36
2021/07/19 11:56:58;;;;;;;4.57;3.30;;;26.00;54.00;;;25.48;45.87;97787.72;4892405;29;20057;-36
2021/07/19 11:59:28;;;;;;;6.03;3.10;;;26.10;54.40;;;25.46;46.32;97787.16;4891462;29;20342;-36
2021/07/19 12:02:00;;;;;;;5.20;3.00;;;26.10;54.50;;;25.48;45.40;97787.72;4892131;29;20254;-36
2021/07/19 12:04:43;;;;;;;4.07;3.05;;;26.00;53.40;;;25.53;46.03;97787.75;4892294;29;20063;-37
2021/07/19 12:07:12;;;;;;;4.00;3.00;;;26.10;54.90;;;25.57;46.95;97783.47;4892833;29;20052;-37
2021/07/19 12:09:41;;;;;;;4.55;3.33;;;26.10;55.60;;;25.62;46.13;97780.78;4892440;29;20545;-37
2021/07/19 12:12:11;;;;;;;4.60;3.80;;;26.20;54.00;;;25.64;45.61;97780.53;4892535;29;20372;-37
2021/07/19 12:14:39;;;;;;;4.30;2.90;;;26.20;54.00;;;25.69;45.50;97777.88;4892464;29;20227;-37
2021/07/19 12:17:08;;;;;;;5.28;2.58;;;26.20;54.00;;;25.69;45.56;97778.69;4890648;29;20055;-37
2021/07/19 12:19:36;;;;;;;4.13;3.38;;;26.20;53.30;;;25.72;45.44;97777.34;4892592;29;20063;-37
2021/07/19 12:22:04;;;;;;;3.72;3.03;;;26.20;53.80;;;25.68;45.70;97776.22;4891580;29;20286;-37
2021/07/19 12:24:32;;;;;;;3.63;2.90;;;26.10;54.20;;;25.69;46.12;97777.88;4890466;29;20068;-36
2021/07/19 12:27:02;;;;;;;4.55;3.08;;;26.10;55.00;;;25.72;46.28;97769.19;4891977;29;20062;-37
2021/07/19 12:29:42;;;;;;;5.45;3.20;;;26.20;55.50;;;25.71;47.27;97781.19;4892083;29;20067;-37
2021/07/19 12:32:11;;;;;;;3.25;2.88;;;26.10;56.00;;;25.69;46.08;97775.97;4890905;29;20070;-37
2021/07/19 12:34:42;;;;;;;5.32;3.30;;;26.10;55.20;;;25.73;45.84;97773.56;4891578;29;20068;-36
2021/07/19 12:37:20;;;;;;;4.53;3.20;;;26.20;54.50;;;25.81;45.50;97764.91;4889052;29;20056;-36
2021/07/19 12:39:51;;;;;;;4.68;3.20;;;26.30;54.30;;;25.89;45.47;97759.00;4891752;29;20049;-35
2021/07/19 12:42:29;;;;;;;4.30;2.72;;;26.50;53.70;;;25.96;45.15;97760.72;4888992;29;20056;-36
2021/07/19 12:44:59;;;;;;;3.33;2.95;;;26.50;52.70;;;25.92;44.32;97763.16;4889875;29;20354;-36
2021/07/19 12:47:29;;;;;;;4.20;3.80;;;26.50;52.20;;;26.03;44.51;97755.88;4890029;29;20052;-36
2021/07/19 12:50:08;;;;;;;3.53;2.50;;;26.60;52.50;;;26.17;44.47;97757.09;4890396;29;20066;-35
2021/07/19 12:52:36;;;;;;;4.28;2.70;;;26.90;51.20;;;26.25;43.83;97753.91;4892620;29;20071;-37
2021/07/19 12:55:26;;;;;;;5.03;3.53;;;27.00;50.20;;;26.17;43.82;97757.09;4891377;29;20064;-36
2021/07/19 12:57:57;;;;;;;3.38;2.60;;;26.70;51.40;;;26.16;43.83;97754.66;4892228;29;20055;-36
2021/07/19 13:00:30;;;;;;;4.90;3.08;;;26.60;51.80;;;26.09;43.81;97750.25;4889054;29;20084;-36
2021/07/19 13:03:00;;;;;;;;;;;26.60;51.60;;;26.11;44.03;97752.69;4891095;29;20057;-37
2021/07/19 13:05:28;;;;;;;4.22;2.95;;;26.60;51.60;;;26.20;44.62;97750.31;4890869;29;19933;-36
2021/07/19 13:07:56;;;;;;;6.30;3.25;;;26.70;53.00;;;26.32;44.65;97753.69;4888439;29;20086;-36
2021/07/19 13:10:26;;;;;;;5.43;2.53;;;27.00;53.30;;;26.36;44.09;97754.81;4889704;29;20063;-36
2021/07/19 13:13:02;;;;;;;4.22;3.28;;;27.10;51.20;;;26.51;42.98;97749.47;4892078;29;20064;-36
2021/07/19 13:15:34;;;;;;;4.32;3.00;;;27.30;49.60;;;26.58;43.32;97740.22;4891887;29;20057;-36
2021/07/19 13:18:10;;;;;;;4.13;3.13;;;27.40;50.70;;;26.62;43.01;97749.56;4890831;29;20062;-36
2021/07/19 13:20:40;;;;;;;4.72;2.72;;;27.50;49.80;;;26.62;42.30;97741.38;4890937;29;20058;-36
2021/07/19 13:23:19;;;;;;;3.47;2.80;;;27.40;49.50;;;26.73;41.75;97736.81;4891209;29;20048;-36
2021/07/19 13:25:49;;;;;;;5.05;2.90;;;27.50;48.50;;;26.86;41.47;97739.09;4890779;29;20075;-36
2021/07/19 13:28:23;;;;;;;5.40;3.35;;;27.70;48.40;;;26.98;41.88;97731.50;4891000;29;20250;-36
2021/07/19 13:30:53;;;;;;;6.07;2.90;;;27.90;47.70;;;26.99;41.50;97741.34;4889786;29;20079;-36
2021/07/19 13:33:25;;;;;;;4.43;3.40;;;27.70;48.30;;;26.95;40.73;97726.56;4889583;29;20060;-36
2021/07/19 13:35:55;;;;;;;5.05;3.67;;;27.60;47.80;;;27.01;41.99;97730.97;4891221;29;20064;-37
2021/07/19 13:38:43;;;;;;;9.07;3.13;;;27.70;49.10;;;27.13;41.18;97727.22;4890775;29;20364;-36
2021/07/19 13:41:17;;;;;;;3.30;2.95;;;27.80;47.60;;;27.29;42.00;97724.28;4891420;29;20056;-36
2021/07/19 13:43:45;;;;;;;3.45;3.15;;;28.10;49.10;;;27.45;41.81;97727.91;4890265;29;20267;-36
2021/07/19 13:46:13;;;;;;;3.72;3.17;;;28.30;49.20;;;27.57;41.09;97726.81;4889696;29;20057;-36
2021/07/19 13:48:41;;;;;;;5.45;2.80;;;28.40;47.30;;;27.67;40.99;97735.06;4889506;29;20056;-36
2021/07/19 13:51:09;;;;;;;3.67;2.90;;;28.50;47.60;;;27.81;40.71;97727.16;4889497;29;20053;-39
2021/07/19 13:53:37;;;;;;;6.07;3.17;;;28.60;47.40;;;27.94;40.99;97728.59;4890168;29;20064;-39
2021/07/19 13:56:05;;;;;;;8.50;2.83;;;28.90;46.60;;;28.04;40.35;97723.94;4890247;29;20056;-38
2021/07/19 13:58:33;;;;;;;6.88;3.58;;;29.00;46.80;;;28.08;40.54;97716.81;4890404;29;20342;-38
2021/07/19 14:01:01;;;;;;;4.30;3.63;;;29.00;47.90;;;28.24;40.67;97722.31;4889607;29;20062;-38
2021/07/19 14:03:30;;;;;;;3.45;3.00;;;29.20;47.60;;;28.29;40.35;97719.56;4890851;29;20470;-38
2021/07/19 14:05:58;;;;;;;3.20;2.90;;;29.20;47.10;;;28.41;40.08;97719.28;4890335;29;20052;-39
2021/07/19 14:08:26;;;;;;;4.47;3.20;;;29.30;47.10;;;28.46;40.41;97717.38;4888048;29;20373;-40
2021/07/19 14:10:56;;;;;;;4.65;2.83;;;29.40;47.30;;;28.50;40.05;97717.66;4890554;29;20076;-40
2021/07/19 14:13:24;;;;;;;5.65;3.50;;;29.30;47.00;;;28.40;39.59;97720.38;4889905;29;20401;-38
2021/07/19 14:15:52;;;;;;;4.00;3.60;;;28.90;46.70;;;28.17;39.16;97717.13;4891301;29;20060;-38
2021/07/19 14:18:22;;;;;;;6.80;3.83;;;28.50;47.00;;;28.05;39.98;97713.81;4889017;29;20354;-38
2021/07/19 14:20:50;;;;;;;3.97;3.40;;;28.30;49.30;;;28.07;41.02;97715.19;4889495;29;20341;-38
2021/07/19 14:23:21;;;;;;;6.55;4.07;;;28.50;49.20;;;28.18;41.02;97713.28;4889485;29;20061;-38
2021/07/19 14:25:50;;;;;;;4.72;4.00;;;28.80;48.50;;;27.96;40.42;97719.00;4886429;29;20048;-38
2021/07/19 14:28:19;;;;;;;4.20;3.53;;;28.50;47.90;;;28.05;40.52;97714.66;4888521;29;20060;-38
2021/07/19 14:30:48;;;;;;;5.00;3.45;;;28.50;48.50;;;28.06;40.83;97710.00;4905700;29;20499;-38
2021/07/19 14:33:23;;;;;;;5.22;3.40;;;28.50;49.80;;;28.25;40.63;97711.09;4890281;29;20077;-38
2021/07/19 14:35:54;;;;;;;4.20;3.22;;;29.00;48.20;;;28.20;39.53;97713.00;4889581;29;20053;-38
2021/07/19 14:38:24;;;;;;;4.65;3.08;;;28.90;45.70;;;28.31;40.21;97708.34;4889053;29;20059;-38
2021/07/19 14:40:53;;;;;;;5.18;3.92;;;29.00;47.90;;;28.42;40.64;97716.28;4889727;29;20056;-39
2021/07/19 14:43:21;;;;;;;6.55;3.50;;;29.10;48.40;;;28.49;40.63;97705.03;4887311;29;20052;-38
2021/07/19 14:45:49;;;;;;;4.90;3.50;;;29.10;48.60;;;28.63;40.50;97702.56;4890685;29;20372;-38
2021/07/19 14:48:17;;;;;;;5.35;4.00;;;29.40;48.20;;;28.76;40.59;97706.66;4892151;29;20183;-39
2021/07/19 14:50:47;;;;;;;4.82;4.43;;;29.60;48.30;;;28.91;40.69;97700.34;4893569;29;20060;-39
2021/07/19 14:53:15;;;;;;;3.97;3.58;;;29.80;47.90;;;28.79;39.93;97703.34;4893173;29;20053;-39
2021/07/19 14:55:43;;;;;;;5.65;3.47;;;29.40;47.00;;;28.79;40.06;97703.34;4894033;29;20049;-39
2021/07/19 14:58:11;;;;;;;4.40;3.78;;;29.30;48.00;;;28.74;39.82;97704.19;4892194;29;20054;-39
2021/07/19 15:00:39;;;;;;;3.85;3.42;;;29.30;47.70;;;28.74;39.72;97709.69;4892616;29;20064;-39
2021/07/19 15:03:08;;;;;;;4.65;4.20;;;29.20;47.50;;;28.66;39.87;97713.81;4894465;29;20370;-39
2021/07/19 15:05:39;;;;;;;4.68;3.85;;;29.10;48.30;;;28.60;39.52;97700.41;4893923;29;20052;-38